createdAt,value
2022-12-19T00:00:17.956Z,100462.22
2022-12-19T00:00:49.368Z,100457.84
2022-12-19T00:01:20.781Z,100455.97
2022-12-19T00:01:52.289Z,100455.13
2022-12-19T00:02:23.835Z,100457.84
2022-12-19T00:02:55.420Z,100453.75
2022-12-19T00:03:27.045Z,100457.56
2022-12-19T00:03:58.681Z,100461.09
2022-12-19T00:04:30.190Z,100457.31
2022-12-19T00:05:01.572Z,100461.94
2022-12-19T00:05:32.912Z,100456.50
2022-12-19T00:06:04.365Z,100458.94
2022-12-19T00:06:35.751Z,100457.84
2022-12-19T00:07:07.141Z,100458.13
2022-12-19T00:07:38.511Z,100449.41
2022-12-19T00:08:16.866Z,100449.97
2022-12-19T00:08:48.723Z,100447.25
2022-12-19T00:09:20.233Z,100448.31
2022-12-19T00:09:51.605Z,100446.16
2022-12-19T00:10:23.038Z,100448.88
2022-12-19T00:10:54.405Z,100446.16
2022-12-19T00:11:25.787Z,100446.16
2022-12-19T00:11:57.192Z,100438.53
2022-12-19T00:12:28.568Z,100436.38
2022-12-19T00:12:59.946Z,100434.72
2022-12-19T00:13:40.831Z,100436.38
2022-12-19T00:14:12.722Z,100429.28
2022-12-19T00:14:44.242Z,100436.63
2022-12-19T00:15:15.658Z,100430.09
2022-12-19T00:15:47.077Z,100436.63
2022-12-19T00:16:19.018Z,100434.72
2022-12-19T00:16:50.549Z,100428.47
2022-12-19T00:17:22.076Z,100432.00
2022-12-19T00:17:53.453Z,100439.09
2022-12-19T00:18:24.879Z,100441.28
2022-12-19T00:18:56.299Z,100436.91
2022-12-19T00:19:27.709Z,100438.00
2022-12-19T00:19:59.186Z,100438.81
2022-12-19T00:20:30.574Z,100434.72
2022-12-19T00:21:01.948Z,100432.56
2022-12-19T00:21:34.810Z,100443.44
2022-12-19T00:22:11.050Z,100438.00
2022-12-19T00:22:42.673Z,100435.28
2022-12-19T00:23:14.081Z,100429.84
2022-12-19T00:23:45.491Z,100432.56
2022-12-19T00:24:21.372Z,100431.47
2022-12-19T00:24:53.134Z,100438.00
2022-12-19T00:25:24.582Z,100432.28
2022-12-19T00:25:56.338Z,100430.38
2022-12-19T00:26:28.311Z,100429.56
2022-12-19T00:26:59.653Z,100426.31
2022-12-19T00:27:32.760Z,100429.03
2022-12-19T00:28:04.134Z,100427.13
2022-12-19T00:28:35.513Z,100428.19
2022-12-19T00:29:12.544Z,100428.75
2022-12-19T00:29:45.577Z,100427.94
2022-12-19T00:30:17.023Z,100428.75
2022-12-19T00:30:48.424Z,100426.31
2022-12-19T00:31:19.901Z,100433.63
2022-12-19T00:31:51.448Z,100429.28
2022-12-19T00:32:22.862Z,100425.47
2022-12-19T00:32:54.297Z,100420.84
2022-12-19T00:33:25.680Z,100420.03
2022-12-19T00:33:57.089Z,100426.56
2022-12-19T00:34:28.543Z,100429.28
2022-12-19T00:34:59.897Z,100425.19
2022-12-19T00:35:33.142Z,100421.94
2022-12-19T00:36:04.607Z,100411.34
2022-12-19T00:36:36.153Z,100414.88
2022-12-19T00:37:07.573Z,100414.31
2022-12-19T00:37:38.937Z,100414.06
2022-12-19T00:38:19.864Z,100423.28
2022-12-19T00:38:51.483Z,100416.50
2022-12-19T00:39:23.010Z,100425.47
2022-12-19T00:39:54.367Z,100414.59
2022-12-19T00:40:25.715Z,100408.88
2022-12-19T00:40:57.093Z,100404.25
2022-12-19T00:41:28.552Z,100412.16
2022-12-19T00:41:59.981Z,100400.72
2022-12-19T00:42:31.318Z,100408.59
2022-12-19T00:43:02.740Z,100407.25
2022-12-19T00:43:34.113Z,100411.88
2022-12-19T00:44:05.507Z,100413.22
2022-12-19T00:44:38.480Z,100404.25
2022-12-19T00:45:09.815Z,100414.31
2022-12-19T00:45:41.252Z,100412.41
2022-12-19T00:46:12.696Z,100412.69
2022-12-19T00:46:52.737Z,100407.25
2022-12-19T00:47:24.434Z,100408.06
2022-12-19T00:47:55.802Z,100402.34
2022-12-19T00:48:27.192Z,100405.06
2022-12-19T00:48:58.598Z,100401.53
2022-12-19T00:49:29.983Z,100405.88
2022-12-19T00:50:01.406Z,100402.34
2022-12-19T00:50:32.784Z,100404.81
2022-12-19T00:51:04.173Z,100411.34
2022-12-19T00:51:38.184Z,100401.25
2022-12-19T00:52:09.665Z,100403.97
2022-12-19T00:52:41.084Z,100411.06
2022-12-19T00:53:12.551Z,100411.06
2022-12-19T00:53:43.912Z,100417.84
2022-12-19T00:54:15.307Z,100417.84
2022-12-19T00:54:47.157Z,100411.34
2022-12-19T00:55:19.755Z,100419.22
2022-12-19T00:55:51.316Z,100412.97
2022-12-19T00:56:22.735Z,100408.59
2022-12-19T00:56:54.118Z,100420.84
2022-12-19T00:57:25.554Z,100412.44
2022-12-19T00:57:56.943Z,100407.78
2022-12-19T00:58:35.280Z,100405.06
2022-12-19T00:59:07.077Z,100407.53
2022-12-19T00:59:38.440Z,100399.91
2022-12-19T01:00:09.861Z,100404.25
2022-12-19T01:00:41.272Z,100408.34
2022-12-19T01:01:14.741Z,100411.63
2022-12-19T01:01:46.323Z,100412.97
2022-12-19T01:02:18.099Z,100404.81
2022-12-19T01:02:49.705Z,100395.56
2022-12-19T01:03:21.259Z,100393.91
2022-12-19T01:04:26.645Z,100390.38
2022-12-19T01:04:44.122Z,100383.84
2022-12-19T01:05:15.576Z,100391.19
2022-12-19T01:05:46.946Z,100381.97
2022-12-19T01:06:18.390Z,100380.59
2022-12-19T01:06:49.793Z,100374.88
2022-12-19T01:07:21.629Z,100379.78
2022-12-19T01:07:53.060Z,100387.94
2022-12-19T01:08:24.478Z,100375.16
2022-12-19T01:08:57.133Z,100381.13
2022-12-19T01:09:28.521Z,100384.13
2022-12-19T01:09:59.904Z,100375.97
2022-12-19T01:10:31.279Z,100373.50
2022-12-19T01:11:02.683Z,100378.41
2022-12-19T01:11:34.065Z,100381.94
2022-12-19T01:12:05.505Z,100378.41
2022-12-19T01:12:36.911Z,100383.84
2022-12-19T01:13:08.357Z,100367.53
2022-12-19T01:13:39.697Z,100371.34
2022-12-19T01:14:17.454Z,100368.06
2022-12-19T01:14:52.291Z,100363.72
2022-12-19T01:15:23.765Z,100364.25
2022-12-19T01:15:55.291Z,100373.22
2022-12-19T01:16:26.813Z,100367.78
2022-12-19T01:16:58.197Z,100370.25
2022-12-19T01:17:29.527Z,100373.78
2022-12-19T01:18:00.894Z,100369.16
2022-12-19T01:18:32.337Z,100365.06
2022-12-19T01:19:03.721Z,100373.78
2022-12-19T01:19:43.675Z,100374.06
2022-12-19T01:20:15.919Z,100381.69
2022-12-19T01:20:47.263Z,100382.50
2022-12-19T01:21:18.684Z,100372.97
2022-12-19T01:21:50.057Z,100379.22
2022-12-19T01:22:21.635Z,100373.25
2022-12-19T01:22:52.998Z,100380.03
2022-12-19T01:23:24.412Z,100368.91
2022-12-19T01:23:55.892Z,100376.78
2022-12-19T01:24:27.287Z,100374.59
2022-12-19T01:24:58.641Z,100380.31
2022-12-19T01:25:30.040Z,100372.16
2022-12-19T01:26:01.441Z,100374.06
2022-12-19T01:26:32.844Z,100383.28
2022-12-19T01:27:04.216Z,100380.03
2022-12-19T01:27:35.613Z,100373.78
2022-12-19T01:28:07.042Z,100367.78
2022-12-19T01:28:38.460Z,100366.72
2022-12-19T01:29:09.882Z,100362.09
2022-12-19T01:29:51.797Z,100365.06
2022-12-19T01:30:24.029Z,100377.31
2022-12-19T01:30:56.048Z,100366.16
2022-12-19T01:31:27.674Z,100360.19
2022-12-19T01:31:59.178Z,100365.88
2022-12-19T01:32:30.640Z,100357.19
2022-12-19T01:33:02.018Z,100366.44
2022-12-19T01:33:33.361Z,100372.69
2022-12-19T01:34:04.754Z,100369.16
2022-12-19T01:34:36.999Z,100369.97
2022-12-19T01:35:16.649Z,100373.78
2022-12-19T01:35:53.232Z,100367.25
2022-12-19T01:36:24.605Z,100374.31
2022-12-19T01:36:55.983Z,100368.06
2022-12-19T01:37:27.332Z,100372.16
2022-12-19T01:38:05.703Z,100366.97
2022-12-19T01:38:39.602Z,100368.88
2022-12-19T01:39:10.975Z,100368.88
2022-12-19T01:39:42.403Z,100365.06
2022-12-19T01:40:16.299Z,100368.34
2022-12-19T01:40:47.683Z,100368.06
2022-12-19T01:41:19.068Z,100371.06
2022-12-19T01:41:50.465Z,100378.94
2022-12-19T01:42:23.516Z,100372.69
2022-12-19T01:42:55.603Z,100378.94
2022-12-19T01:43:26.982Z,100377.59
2022-12-19T01:43:58.371Z,100360.19
2022-12-19T01:44:29.771Z,100372.97
2022-12-19T01:45:01.236Z,100367.78
2022-12-19T01:45:34.929Z,100364.00
2022-12-19T01:46:07.391Z,100369.44
2022-12-19T01:46:38.820Z,100377.59
2022-12-19T01:47:10.185Z,100364.00
2022-12-19T01:47:41.560Z,100361.81
2022-12-19T01:48:12.963Z,100363.72
2022-12-19T01:48:44.328Z,100357.47
2022-12-19T01:49:15.739Z,100358.28
2022-12-19T01:49:48.435Z,100356.66
2022-12-19T01:50:20.065Z,100351.75
2022-12-19T01:51:00.729Z,100356.66
2022-12-19T01:51:33.575Z,100371.06
2022-12-19T01:52:04.958Z,100367.53
2022-12-19T01:52:36.343Z,100367.78
2022-12-19T01:53:07.736Z,100359.63
2022-12-19T01:53:48.476Z,100368.06
2022-12-19T01:54:20.886Z,100359.91
2022-12-19T01:54:52.287Z,100364.25
2022-12-19T01:55:23.664Z,100358.28
2022-12-19T01:55:55.022Z,100360.72
2022-12-19T01:56:26.475Z,100365.88
2022-12-19T01:56:57.855Z,100363.44
2022-12-19T01:57:29.307Z,100372.41
2022-12-19T01:58:00.712Z,100363.44
2022-12-19T01:58:32.081Z,100371.59
2022-12-19T01:59:05.717Z,100360.44
2022-12-19T01:59:38.133Z,100366.16
2022-12-19T02:00:09.902Z,100372.41
2022-12-19T02:00:41.319Z,100354.19
2022-12-19T02:01:12.855Z,100364.53
2022-12-19T02:01:51.702Z,100368.34
2022-12-19T02:02:23.634Z,100356.91
2022-12-19T02:02:55.166Z,100369.69
2022-12-19T02:03:26.687Z,100367.25
2022-12-19T02:03:58.185Z,100369.97
2022-12-19T02:04:32.349Z,100369.97
2022-12-19T02:05:04.166Z,100363.97
2022-12-19T02:05:35.567Z,100364.53
2022-12-19T02:06:06.969Z,100364.53
2022-12-19T02:06:38.420Z,100353.66
2022-12-19T02:07:15.496Z,100353.38
2022-12-19T02:07:47.817Z,100357.19
2022-12-19T02:08:19.223Z,100349.03
2022-12-19T02:08:50.740Z,100352.00
2022-12-19T02:09:22.112Z,100342.78
2022-12-19T02:09:57.388Z,100349.84
2022-12-19T02:10:29.090Z,100342.22
2022-12-19T02:11:00.525Z,100338.97
2022-12-19T02:11:31.919Z,100339.22
2022-12-19T02:12:03.348Z,100331.88
2022-12-19T02:12:34.785Z,100352.00
2022-12-19T02:13:06.145Z,100335.69
2022-12-19T02:13:37.531Z,100341.13
2022-12-19T02:14:09.895Z,100341.94
2022-12-19T02:14:41.267Z,100331.88
2022-12-19T02:15:12.643Z,100338.41
2022-12-19T02:15:44.089Z,100335.69
2022-12-19T02:16:15.558Z,100333.50
2022-12-19T02:16:47.060Z,100326.16
2022-12-19T02:17:18.528Z,100325.91
2022-12-19T02:17:52.593Z,100324.81
2022-12-19T02:18:24.255Z,100309.59
2022-12-19T02:18:55.604Z,100313.38
2022-12-19T02:19:26.969Z,100316.66
2022-12-19T02:19:58.349Z,100311.22
2022-12-19T02:20:30.105Z,100314.22
2022-12-19T02:21:01.583Z,100317.75
2022-12-19T02:21:33.006Z,100308.50
2022-12-19T02:22:04.430Z,100302.25
2022-12-19T02:22:35.887Z,100300.06
2022-12-19T02:23:07.298Z,100299.25
2022-12-19T02:23:40.923Z,100291.09
2022-12-19T02:24:12.308Z,100290.81
2022-12-19T02:24:43.723Z,100291.91
2022-12-19T02:25:15.099Z,100277.50
2022-12-19T02:25:46.454Z,100284.84
2022-12-19T02:26:17.869Z,100278.31
2022-12-19T02:26:49.377Z,100280.22
2022-12-19T02:27:20.733Z,100291.91
2022-12-19T02:27:52.171Z,100280.22
2022-12-19T02:28:23.556Z,100280.75
2022-12-19T02:28:56.678Z,100276.94
2022-12-19T02:29:28.058Z,100266.88
2022-12-19T02:29:59.444Z,100294.91
2022-12-19T02:30:30.819Z,100269.34
2022-12-19T02:31:02.195Z,100272.06
2022-12-19T02:31:39.561Z,100269.34
2022-12-19T02:32:11.066Z,100266.88
2022-12-19T02:32:42.490Z,100266.63
2022-12-19T02:33:13.856Z,100262.81
2022-12-19T02:33:45.245Z,100269.88
2022-12-19T02:34:16.625Z,100263.63
2022-12-19T02:34:48.013Z,100269.88
2022-12-19T02:35:19.397Z,100259.53
2022-12-19T02:35:50.804Z,100273.69
2022-12-19T02:36:22.190Z,100260.34
2022-12-19T02:36:53.584Z,100266.59
2022-12-19T02:37:26.503Z,100264.16
2022-12-19T02:37:58.982Z,100260.63
2022-12-19T02:38:30.453Z,100265.53
2022-12-19T02:39:01.868Z,100262.81
2022-12-19T02:39:33.244Z,100264.97
2022-12-19T02:40:05.246Z,100260.91
2022-12-19T02:40:36.623Z,100262.53
2022-12-19T02:41:08.015Z,100257.38
2022-12-19T02:41:39.368Z,100260.63
2022-12-19T02:42:10.725Z,100252.75
2022-12-19T02:42:43.769Z,100261.72
2022-12-19T02:43:15.139Z,100255.19
2022-12-19T02:43:46.518Z,100248.94
2022-12-19T02:44:20.384Z,100245.41
2022-12-19T02:44:51.985Z,100245.94
2022-12-19T02:45:28.431Z,100241.06
2022-12-19T02:46:00.418Z,100231.81
2022-12-19T02:46:31.917Z,100234.78
2022-12-19T02:47:03.376Z,100232.06
2022-12-19T02:47:34.761Z,100224.72
2022-12-19T02:48:09.032Z,100230.44
2022-12-19T02:48:40.613Z,100219.28
2022-12-19T02:49:12.010Z,100217.66
2022-12-19T02:49:47.893Z,100221.75
2022-12-19T02:50:19.265Z,100213.84
2022-12-19T02:50:50.710Z,100219.84
2022-12-19T02:51:22.088Z,100218.47
2022-12-19T02:51:53.543Z,100212.75
2022-12-19T02:52:24.942Z,100213.84
2022-12-19T02:52:56.283Z,100214.41
2022-12-19T02:53:27.704Z,100219.28
2022-12-19T02:53:59.083Z,100206.50
2022-12-19T02:54:30.487Z,100203.53
2022-12-19T02:55:01.865Z,100202.69
2022-12-19T02:55:33.260Z,100208.97
2022-12-19T02:56:10.297Z,100218.47
2022-12-19T02:56:42.060Z,100214.66
2022-12-19T02:57:13.450Z,100212.50
2022-12-19T02:57:44.802Z,100216.03
2022-12-19T02:58:16.161Z,100219.84
2022-12-19T02:58:47.797Z,100210.03
2022-12-19T02:59:19.314Z,100213.59
2022-12-19T02:59:50.702Z,100213.59
2022-12-19T03:00:23.200Z,100211.13
2022-12-19T03:00:54.654Z,100213.84
2022-12-19T03:01:26.230Z,100216.56
2022-12-19T03:01:58.965Z,100208.16
2022-12-19T03:02:30.665Z,100212.22
2022-12-19T03:03:02.396Z,100210.88
2022-12-19T03:03:33.896Z,100216.03
2022-12-19T03:04:05.383Z,100216.56
2022-12-19T03:04:36.759Z,100217.13
2022-12-19T03:05:08.169Z,100211.13
2022-12-19T03:05:39.589Z,100212.75
2022-12-19T03:06:11.029Z,100212.75
2022-12-19T03:06:42.467Z,100208.97
2022-12-19T03:07:14.746Z,100205.69
2022-12-19T03:07:46.193Z,100207.88
2022-12-19T03:08:17.615Z,100210.59
2022-12-19T03:08:49.029Z,100198.63
2022-12-19T03:09:20.546Z,100199.97
2022-12-19T03:09:51.949Z,100199.44
2022-12-19T03:10:23.363Z,100202.44
2022-12-19T03:10:54.769Z,100201.88
2022-12-19T03:11:26.165Z,100208.41
2022-12-19T03:11:57.552Z,100202.97
2022-12-19T03:12:28.939Z,100207.59
2022-12-19T03:13:00.328Z,100205.97
2022-12-19T03:13:31.716Z,100210.88
2022-12-19T03:14:03.144Z,100201.63
2022-12-19T03:14:34.570Z,100205.16
2022-12-19T03:15:06.014Z,100207.06
2022-12-19T03:15:37.394Z,100207.31
2022-12-19T03:16:08.803Z,100198.91
2022-12-19T03:16:40.204Z,100200.53
2022-12-19T03:17:11.620Z,100199.72
2022-12-19T03:17:43.034Z,100208.97
2022-12-19T03:18:14.386Z,100199.44
2022-12-19T03:18:45.718Z,100204.59
2022-12-19T03:19:17.083Z,100203.53
2022-12-19T03:19:48.519Z,100195.09
2022-12-19T03:20:19.998Z,100197.53
2022-12-19T03:20:51.464Z,100194.81
2022-12-19T03:21:22.930Z,100188.28
2022-12-19T03:21:54.285Z,100189.91
2022-12-19T03:22:25.649Z,100189.91
2022-12-19T03:22:57.044Z,100190.47
2022-12-19T03:23:28.435Z,100192.38
2022-12-19T03:23:59.855Z,100175.78
2022-12-19T03:24:31.270Z,100177.69
2022-12-19T03:25:02.710Z,100180.94
2022-12-19T03:25:34.081Z,100183.94
2022-12-19T03:26:05.664Z,100180.13
2022-12-19T03:26:37.124Z,100191.53
2022-12-19T03:27:08.560Z,100191.28
2022-12-19T03:27:39.975Z,100177.41
2022-12-19T03:28:11.381Z,100176.03
2022-12-19T03:28:42.748Z,100170.34
2022-12-19T03:29:14.232Z,100175.78
2022-12-19T03:29:45.804Z,100174.41
2022-12-19T03:30:17.271Z,100183.66
2022-12-19T03:30:48.747Z,100177.41
2022-12-19T03:31:20.319Z,100177.41
2022-12-19T03:31:51.753Z,100170.34
2022-12-19T03:32:23.388Z,100167.06
2022-12-19T03:32:54.775Z,100167.06
2022-12-19T03:33:26.192Z,100158.91
2022-12-19T03:33:57.650Z,100164.06
2022-12-19T03:34:29.044Z,100161.34
2022-12-19T03:35:00.458Z,100164.91
2022-12-19T03:35:31.867Z,100167.59
2022-12-19T03:36:03.293Z,100173.88
2022-12-19T03:36:34.675Z,100172.22
2022-12-19T03:37:06.049Z,100164.06
2022-12-19T03:37:39.525Z,100161.34
2022-12-19T03:38:10.920Z,100166.78
2022-12-19T03:38:42.343Z,100166.78
2022-12-19T03:39:13.735Z,100163.00
2022-12-19T03:39:45.129Z,100182.56
2022-12-19T03:40:16.541Z,100165.97
2022-12-19T03:40:47.970Z,100166.78
2022-12-19T03:41:19.377Z,100159.19
2022-12-19T03:41:50.838Z,100151.84
2022-12-19T03:42:22.273Z,100153.47
2022-12-19T03:42:53.715Z,100143.66
2022-12-19T03:43:25.128Z,100147.47
2022-12-19T03:43:56.770Z,100156.72
2022-12-19T03:44:28.177Z,100148.84
2022-12-19T03:44:59.669Z,100158.09
2022-12-19T03:45:31.080Z,100154.28
2022-12-19T03:46:02.666Z,100163.25
2022-12-19T03:46:34.138Z,100152.13
2022-12-19T03:47:05.535Z,100152.66
2022-12-19T03:47:38.060Z,100147.22
2022-12-19T03:48:09.451Z,100155.09
2022-12-19T03:48:40.836Z,100137.16
2022-12-19T03:49:12.295Z,100142.03
2022-12-19T03:49:43.645Z,100149.66
2022-12-19T03:50:15.015Z,100141.78
2022-12-19T03:50:46.407Z,100155.91
2022-12-19T03:51:17.884Z,100153.47
2022-12-19T03:51:49.293Z,100147.50
2022-12-19T03:52:20.673Z,100148.31
2022-12-19T03:52:52.033Z,100151.28
2022-12-19T03:53:23.520Z,100158.38
2022-12-19T03:53:54.928Z,100146.94
2022-12-19T03:54:26.341Z,100143.94
2022-12-19T03:54:57.857Z,100130.91
2022-12-19T03:55:29.243Z,100143.94
2022-12-19T03:56:01.044Z,100150.75
2022-12-19T03:56:32.528Z,100151.03
2022-12-19T03:57:03.895Z,100142.88
2022-12-19T03:57:35.300Z,100159.47
2022-12-19T03:58:06.741Z,100157.81
2022-12-19T03:58:38.127Z,100148.56
2022-12-19T03:59:09.543Z,100152.13
2022-12-19T03:59:40.922Z,100155.91
2022-12-19T04:00:12.302Z,100157.56
2022-12-19T04:00:43.653Z,100152.13
2022-12-19T04:01:15.205Z,100142.03
2022-12-19T04:01:46.746Z,100146.66
2022-12-19T04:02:18.428Z,100157.81
2022-12-19T04:02:49.897Z,100151.84
2022-12-19T04:03:21.494Z,100155.66
2022-12-19T04:03:52.918Z,100150.47
2022-12-19T04:04:24.329Z,100146.94
2022-12-19T04:04:55.841Z,100144.22
2022-12-19T04:05:27.235Z,100149.41
2022-12-19T04:05:58.636Z,100150.22
2022-12-19T04:06:30.019Z,100142.03
2022-12-19T04:07:01.451Z,100138.50
2022-12-19T04:07:32.904Z,100143.13
2022-12-19T04:08:04.351Z,100145.84
2022-12-19T04:08:35.850Z,100149.41
2022-12-19T04:09:07.269Z,100148.56
2022-12-19T04:09:38.649Z,100153.75
2022-12-19T04:10:10.037Z,100150.75
2022-12-19T04:10:41.474Z,100158.91
2022-12-19T04:11:12.882Z,100161.34
2022-12-19T04:11:44.282Z,100145.31
2022-12-19T04:12:15.671Z,100142.59
2022-12-19T04:12:47.110Z,100154.81
2022-12-19T04:13:18.546Z,100155.09
2022-12-19T04:13:49.916Z,100169.25
2022-12-19T04:14:21.310Z,100170.59
2022-12-19T04:14:52.715Z,100171.69
2022-12-19T04:15:24.138Z,100174.97
2022-12-19T04:15:55.606Z,100178.75
2022-12-19T04:16:27.093Z,100144.50
2022-12-19T04:16:58.464Z,100149.13
2022-12-19T04:17:29.847Z,100137.41
2022-12-19T04:18:01.273Z,100157.56
2022-12-19T04:18:32.644Z,100153.47
2022-12-19T04:19:04.056Z,100159.72
2022-12-19T04:19:39.797Z,100155.09
2022-12-19T04:20:13.798Z,100162.44
2022-12-19T04:20:45.170Z,100141.78
2022-12-19T04:21:16.533Z,100144.78
2022-12-19T04:21:47.926Z,100137.16
2022-12-19T04:22:19.339Z,100146.66
2022-12-19T04:22:50.754Z,100151.03
2022-12-19T04:23:22.209Z,100142.88
2022-12-19T04:23:53.640Z,100146.41
2022-12-19T04:24:25.049Z,100160.00
2022-12-19T04:24:56.474Z,100142.88
2022-12-19T04:25:29.556Z,100129.25
2022-12-19T04:26:01.164Z,100137.69
2022-12-19T04:26:32.546Z,100137.16
2022-12-19T04:27:03.916Z,100139.06
2022-12-19T04:27:35.348Z,100140.69
2022-12-19T04:28:06.746Z,100134.44
2022-12-19T04:28:38.162Z,100119.22
2022-12-19T04:29:09.615Z,100124.66
2022-12-19T04:29:40.985Z,100129.00
2022-12-19T04:30:12.398Z,100137.16
2022-12-19T04:30:43.844Z,100140.16
2022-12-19T04:31:15.322Z,100137.44
2022-12-19T04:31:46.764Z,100142.59
2022-12-19T04:32:18.180Z,100127.09
2022-12-19T04:32:49.531Z,100144.22
2022-12-19T04:33:20.962Z,100145.31
2022-12-19T04:33:52.356Z,100142.59
2022-12-19T04:34:23.807Z,100149.66
2022-12-19T04:34:55.184Z,100149.94
2022-12-19T04:35:26.578Z,100143.13
2022-12-19T04:35:57.973Z,100134.97
2022-12-19T04:36:29.362Z,100132.25
2022-12-19T04:37:00.805Z,100115.94
2022-12-19T04:37:32.244Z,100129.00
2022-12-19T04:38:03.649Z,100145.84
2022-12-19T04:38:35.663Z,100141.78
2022-12-19T04:39:07.085Z,100136.88
2022-12-19T04:39:38.527Z,100134.16
2022-12-19T04:40:09.943Z,100137.97
2022-12-19T04:40:41.893Z,100124.63
2022-12-19T04:41:13.391Z,100124.63
2022-12-19T04:41:44.775Z,100121.38
2022-12-19T04:42:16.144Z,100118.09
2022-12-19T04:42:47.594Z,100109.94
2022-12-19T04:43:18.986Z,100129.81
2022-12-19T04:43:50.356Z,100126.28
2022-12-19T04:44:21.736Z,100125.19
2022-12-19T04:44:53.091Z,100123.81
2022-12-19T04:45:24.511Z,100118.38
2022-12-19T04:45:57.784Z,100127.34
2022-12-19T04:46:29.345Z,100132.25
2022-12-19T04:47:00.718Z,100125.44
2022-12-19T04:47:32.109Z,100130.06
2022-12-19T04:48:03.620Z,100127.63
2022-12-19T04:48:35.014Z,100124.63
2022-12-19T04:49:06.374Z,100123.81
2022-12-19T04:49:37.998Z,100132.25
2022-12-19T04:50:09.399Z,100132.25
2022-12-19T04:50:40.774Z,100135.53
2022-12-19T04:51:12.167Z,100128.44
2022-12-19T04:51:43.551Z,100126.00
2022-12-19T04:52:14.949Z,100127.09
2022-12-19T04:52:46.341Z,100119.75
2022-12-19T04:53:17.768Z,100118.66
2022-12-19T04:53:49.132Z,100121.38
2022-12-19T04:54:20.515Z,100117.56
2022-12-19T04:54:51.986Z,100113.75
2022-12-19T04:55:23.382Z,100113.75
2022-12-19T04:55:54.738Z,100108.31
2022-12-19T04:56:26.109Z,100126.28
2022-12-19T04:56:57.534Z,100122.47
2022-12-19T04:57:28.916Z,100118.09
2022-12-19T04:58:00.328Z,100119.47
2022-12-19T04:58:31.744Z,100119.75
2022-12-19T04:59:03.217Z,100113.50
2022-12-19T04:59:34.646Z,100108.88
2022-12-19T05:00:06.037Z,100104.25
2022-12-19T05:00:37.451Z,100102.88
2022-12-19T05:01:08.826Z,100102.63
2022-12-19T05:01:40.352Z,100090.91
2022-12-19T05:02:11.852Z,100100.44
2022-12-19T05:02:43.521Z,100093.09
2022-12-19T05:03:15.178Z,100103.16
2022-12-19T05:03:51.281Z,100104.78
2022-12-19T05:04:25.782Z,100102.63
2022-12-19T05:04:57.213Z,100098.25
2022-12-19T05:05:28.664Z,100102.63
2022-12-19T05:06:00.062Z,100103.44
2022-12-19T05:06:31.495Z,100096.34
2022-12-19T05:07:02.863Z,100100.16
2022-12-19T05:07:34.231Z,100103.97
2022-12-19T05:08:05.590Z,100080.59
2022-12-19T05:08:36.967Z,100098.53
2022-12-19T05:09:08.387Z,100094.19
2022-12-19T05:09:39.771Z,100097.72
2022-12-19T05:10:11.149Z,100106.69
2022-12-19T05:10:42.539Z,100091.19
2022-12-19T05:11:19.219Z,100093.91
2022-12-19T05:11:51.231Z,100092.81
2022-12-19T05:12:22.676Z,100095.28
2022-12-19T05:12:54.068Z,100097.44
2022-12-19T05:13:25.499Z,100103.16
2022-12-19T05:13:56.897Z,100106.16
2022-12-19T05:14:28.361Z,100088.47
2022-12-19T05:14:59.800Z,100106.44
2022-12-19T05:15:31.209Z,100106.44
2022-12-19T05:16:02.700Z,100107.50
2022-12-19T05:16:34.125Z,100100.16
2022-12-19T05:17:05.551Z,100102.88
2022-12-19T05:17:36.995Z,100106.16
2022-12-19T05:18:08.403Z,100105.59
2022-12-19T05:18:39.791Z,100098.00
2022-12-19T05:19:11.288Z,100110.22
2022-12-19T05:19:42.753Z,100103.44
2022-12-19T05:20:14.194Z,100097.72
2022-12-19T05:20:45.576Z,100103.16
2022-12-19T05:21:17.545Z,100108.31
2022-12-19T05:21:48.966Z,100106.16
2022-12-19T05:22:20.426Z,100102.63
2022-12-19T05:22:51.814Z,100098.53
2022-12-19T05:23:23.185Z,100105.06
2022-12-19T05:23:54.589Z,100108.88
2022-12-19T05:24:26.009Z,100102.34
2022-12-19T05:24:57.488Z,100103.16
2022-12-19T05:25:28.922Z,100104.25
2022-12-19T05:26:00.316Z,100104.53
2022-12-19T05:26:31.763Z,100091.47
2022-12-19T05:27:03.132Z,100103.16
2022-12-19T05:27:34.659Z,100091.75
2022-12-19T05:28:13.174Z,100108.88
2022-12-19T05:28:44.565Z,100101.53
2022-12-19T05:29:15.935Z,100100.72
2022-12-19T05:29:47.315Z,100098.00
2022-12-19T05:30:18.735Z,100096.91
2022-12-19T05:30:52.542Z,100099.63
2022-12-19T05:31:24.314Z,100107.78
2022-12-19T05:31:55.692Z,100098.81
2022-12-19T05:32:27.205Z,100108.88
2022-12-19T05:32:58.602Z,100103.16
2022-12-19T05:33:29.989Z,100076.78
2022-12-19T05:34:01.396Z,100100.72
2022-12-19T05:34:32.768Z,100103.72
2022-12-19T05:35:04.169Z,100101.25
2022-12-19T05:35:35.638Z,100102.91
2022-12-19T05:36:07.042Z,100103.72
2022-12-19T05:36:38.506Z,100092.84
2022-12-19T05:37:09.889Z,100104.25
2022-12-19T05:37:41.326Z,100093.66
2022-12-19T05:38:12.755Z,100087.13
2022-12-19T05:38:44.102Z,100090.94
2022-12-19T05:39:15.535Z,100091.19
2022-12-19T05:39:46.930Z,100090.38
2022-12-19T05:40:18.283Z,100087.13
2022-12-19T05:40:49.708Z,100092.03
2022-12-19T05:41:21.166Z,100088.75
2022-12-19T05:41:52.499Z,100083.84
2022-12-19T05:42:23.889Z,100093.91
2022-12-19T05:42:55.290Z,100085.75
2022-12-19T05:43:26.724Z,100094.19
2022-12-19T05:43:58.155Z,100085.75
2022-12-19T05:44:29.573Z,100095.00
2022-12-19T05:45:00.946Z,100105.88
2022-12-19T05:45:32.366Z,100096.38
2022-12-19T05:46:03.821Z,100093.38
2022-12-19T05:46:35.234Z,100093.66
2022-12-19T05:47:06.637Z,100095.81
2022-12-19T05:47:38.280Z,100090.38
2022-12-19T05:48:09.696Z,100103.44
2022-12-19T05:48:41.103Z,100114.59
2022-12-19T05:49:12.641Z,100103.44
2022-12-19T05:49:44.460Z,100099.34
2022-12-19T05:50:15.853Z,100098.53
2022-12-19T05:50:47.192Z,100102.91
2022-12-19T05:51:18.674Z,100108.34
2022-12-19T05:51:50.074Z,100105.88
2022-12-19T05:52:21.503Z,100102.91
2022-12-19T05:52:52.898Z,100101.81
2022-12-19T05:53:26.076Z,100102.91
2022-12-19T05:53:57.599Z,100107.78
2022-12-19T05:54:28.973Z,100103.97
2022-12-19T05:55:01.013Z,100119.22
2022-12-19T05:55:32.407Z,100109.16
2022-12-19T05:56:03.813Z,100101.25
2022-12-19T05:56:35.257Z,100106.44
2022-12-19T05:57:06.640Z,100098.53
2022-12-19T05:57:38.064Z,100099.91
2022-12-19T05:58:09.496Z,100109.97
2022-12-19T05:58:40.907Z,100107.53
2022-12-19T05:59:12.275Z,100100.19
2022-12-19T05:59:43.726Z,100102.63
2022-12-19T06:00:15.090Z,100108.34
2022-12-19T06:00:46.522Z,100093.66
2022-12-19T06:01:17.979Z,100099.91
2022-12-19T06:01:49.534Z,100104.53
2022-12-19T06:02:21.122Z,100113.50
2022-12-19T06:02:52.780Z,100101.00
2022-12-19T06:03:24.381Z,100098.28